createdAt,value
2022-12-19T00:01:37.641Z,38.63
2022-12-19T00:04:08.331Z,37.60
2022-12-19T00:06:36.865Z,40.70
2022-12-19T00:09:04.077Z,45.65
2022-12-19T00:11:30.755Z,42.33
2022-12-19T00:13:58.481Z,41.35
2022-12-19T00:16:28.405Z,40.10
2022-12-19T00:18:59.032Z,35.47
2022-12-19T00:21:27.951Z,40.40
2022-12-19T00:23:55.015Z,37.35
2022-12-19T00:26:29.165Z,42.05
2022-12-19T00:29:01.397Z,41.72
2022-12-19T00:31:30.298Z,41.17
2022-12-19T00:33:57.826Z,42.03
2022-12-19T00:36:27.032Z,42.90
2022-12-19T00:38:55.187Z,37.83
2022-12-19T00:41:24.562Z,40.80
2022-12-19T00:44:04.404Z,39.00
2022-12-19T00:46:32.850Z,40.72
2022-12-19T00:49:00.123Z,42.25
2022-12-19T00:51:29.290Z,43.28
2022-12-19T00:53:59.295Z,42.22
2022-12-19T00:56:37.375Z,38.30
2022-12-19T00:59:05.052Z,42.33
2022-12-19T01:01:38.306Z,44.50
2022-12-19T01:07:01.115Z,39.42
2022-12-19T01:09:30.189Z,42.28
2022-12-19T01:12:15.369Z,47.83
2022-12-19T01:14:42.677Z,39.42
2022-12-19T01:17:09.701Z,42.60
2022-12-19T01:19:41.929Z,46.67
2022-12-19T01:22:11.073Z,45.63
2022-12-19T01:24:38.300Z,42.70
2022-12-19T01:27:04.891Z,47.60
2022-12-19T01:29:32.852Z,49.70
2022-12-19T01:32:01.194Z,44.40
2022-12-19T01:34:28.277Z,47.30
2022-12-19T01:36:54.860Z,44.75
2022-12-19T01:39:21.459Z,45.35
2022-12-19T01:41:50.754Z,51.72
2022-12-19T01:44:17.317Z,51.70
2022-12-19T01:46:47.763Z,47.75
2022-12-19T01:49:22.016Z,49.28
2022-12-19T01:51:53.930Z,47.45
2022-12-19T01:54:25.629Z,50.28
2022-12-19T01:56:55.900Z,43.78
2022-12-19T01:59:29.615Z,42.45
2022-12-19T02:02:03.913Z,42.72
2022-12-19T02:04:32.389Z,55.38
2022-12-19T02:07:00.704Z,46.42
2022-12-19T02:09:37.693Z,51.58
2022-12-19T02:12:04.571Z,47.42
2022-12-19T02:14:31.536Z,49.42
2022-12-19T02:17:25.991Z,55.78
2022-12-19T02:20:14.344Z,52.60
2022-12-19T02:22:50.096Z,48.13
2022-12-19T02:25:35.680Z,48.10
2022-12-19T02:28:30.039Z,54.05
2022-12-19T02:31:11.402Z,51.47
2022-12-19T02:33:56.722Z,51.50
2022-12-19T02:36:41.899Z,49.35
2022-12-19T02:39:24.938Z,48.35
2022-12-19T02:41:56.535Z,51.00
2022-12-19T02:44:35.740Z,52.47
2022-12-19T02:47:04.317Z,51.28
2022-12-19T02:49:34.432Z,52.53
2022-12-19T02:52:19.204Z,55.87
2022-12-19T02:55:11.646Z,58.08
2022-12-19T02:57:53.437Z,53.83
2022-12-19T03:00:23.000Z,57.50
2022-12-19T03:03:07.708Z,54.08
2022-12-19T03:05:37.207Z,58.55
2022-12-19T03:08:12.847Z,64.45
2022-12-19T03:10:48.833Z,55.80
2022-12-19T03:13:28.789Z,54.65
2022-12-19T03:15:57.410Z,51.25
2022-12-19T03:18:27.355Z,55.60
2022-12-19T03:21:09.147Z,62.08
2022-12-19T03:23:36.164Z,52.78
2022-12-19T03:26:06.988Z,64.10
2022-12-19T03:28:50.596Z,49.00
2022-12-19T03:31:22.082Z,56.58
2022-12-19T03:33:54.530Z,55.47
2022-12-19T03:36:28.462Z,62.30
2022-12-19T03:38:57.154Z,62.40
2022-12-19T03:41:44.388Z,61.10
2022-12-19T03:44:13.345Z,59.10
2022-12-19T03:46:46.059Z,68.28
2022-12-19T03:49:13.581Z,59.67
2022-12-19T03:52:11.084Z,57.17
2022-12-19T03:54:41.691Z,65.32
2022-12-19T03:57:19.461Z,56.60
2022-12-19T03:59:54.659Z,66.30
2022-12-19T04:02:23.308Z,63.20
2022-12-19T04:05:01.556Z,63.58
2022-12-19T04:07:28.436Z,66.35
2022-12-19T04:09:58.873Z,60.15
2022-12-19T04:12:32.533Z,59.70
2022-12-19T04:14:59.324Z,65.50
2022-12-19T04:17:39.901Z,60.20
2022-12-19T04:20:13.464Z,63.95
2022-12-19T04:23:03.287Z,56.42
2022-12-19T04:25:50.101Z,65.70
2022-12-19T04:28:31.273Z,53.15
2022-12-19T04:30:59.235Z,61.25
2022-12-19T04:33:25.946Z,63.85
2022-12-19T04:35:52.859Z,53.35
2022-12-19T04:38:22.357Z,60.67
2022-12-19T04:40:49.027Z,61.20
2022-12-19T04:43:18.575Z,68.45
2022-12-19T04:45:45.362Z,59.15
2022-12-19T04:48:11.967Z,59.95
2022-12-19T04:50:38.506Z,52.35
2022-12-19T04:53:06.527Z,55.58
2022-12-19T04:55:33.194Z,58.92
2022-12-19T04:58:05.755Z,58.05
2022-12-19T05:00:32.714Z,61.45
2022-12-19T05:02:59.482Z,57.05
2022-12-19T05:05:29.165Z,63.20
2022-12-19T05:07:58.920Z,62.67
2022-12-19T05:10:25.666Z,64.05
2022-12-19T05:12:54.361Z,58.00
2022-12-19T05:15:20.914Z,57.38
2022-12-19T05:17:47.513Z,56.13
2022-12-19T05:20:14.521Z,58.03
2022-12-19T05:22:41.036Z,56.45
2022-12-19T05:25:08.289Z,63.28
2022-12-19T05:27:34.907Z,63.47
2022-12-19T05:30:02.197Z,53.20
2022-12-19T05:32:33.704Z,56.70
2022-12-19T05:35:00.433Z,63.53
2022-12-19T05:37:27.090Z,57.05
2022-12-19T05:39:53.623Z,54.53
2022-12-19T05:42:20.168Z,58.10
2022-12-19T05:44:46.696Z,59.20
2022-12-19T05:47:13.321Z,56.85
2022-12-19T05:49:39.998Z,56.13
2022-12-19T05:52:06.652Z,56.40
2022-12-19T05:54:33.385Z,56.90
2022-12-19T05:57:00.034Z,56.05
2022-12-19T05:59:27.271Z,56.78
2022-12-19T06:01:54.475Z,59.83
2022-12-19T06:04:21.414Z,56.58
2022-12-19T06:06:48.058Z,58.55
2022-12-19T06:09:14.784Z,56.17
2022-12-19T06:11:41.733Z,56.72
2022-12-19T06:14:08.628Z,58.88
2022-12-19T06:16:35.292Z,56.00
2022-12-19T06:19:02.099Z,57.17
2022-12-19T06:21:28.740Z,56.30
2022-12-19T06:23:55.473Z,59.03
2022-12-19T06:26:22.626Z,57.95
2022-12-19T06:28:51.547Z,58.08
2022-12-19T06:31:19.977Z,58.42
2022-12-19T06:33:46.743Z,57.05
2022-12-19T06:36:15.082Z,53.08
2022-12-19T06:38:41.862Z,56.60
2022-12-19T06:41:28.981Z,62.88
2022-12-19T06:43:59.672Z,56.05
2022-12-19T06:46:26.640Z,54.80
2022-12-19T06:48:55.573Z,51.65
2022-12-19T06:51:22.570Z,54.17
2022-12-19T06:53:49.457Z,57.35
2022-12-19T06:56:17.137Z,53.03
2022-12-19T06:58:47.289Z,48.13
2022-12-19T07:01:31.153Z,59.75
2022-12-19T07:03:58.496Z,52.55
2022-12-19T07:06:25.329Z,52.92
2022-12-19T07:08:53.063Z,54.20
2022-12-19T07:11:19.921Z,55.90
2022-12-19T07:13:46.512Z,53.63
2022-12-19T07:16:13.195Z,53.65
2022-12-19T07:18:41.036Z,54.15
2022-12-19T07:21:13.356Z,60.22
2022-12-19T07:23:41.125Z,46.58
2022-12-19T07:26:08.206Z,53.47
2022-12-19T07:28:36.368Z,54.70
2022-12-19T07:31:02.854Z,49.25
2022-12-19T07:33:29.555Z,53.28
2022-12-19T07:35:56.172Z,50.53
2022-12-19T07:38:22.825Z,52.03
2022-12-19T07:40:49.489Z,51.47
2022-12-19T07:43:16.095Z,52.78
2022-12-19T07:45:42.871Z,56.20
2022-12-19T07:48:10.192Z,51.13
2022-12-19T07:50:37.087Z,47.72
2022-12-19T07:53:03.848Z,51.65
2022-12-19T07:55:30.548Z,53.78
2022-12-19T07:57:57.215Z,49.67
2022-12-19T08:00:24.067Z,55.35
2022-12-19T08:02:50.863Z,51.00
2022-12-19T08:05:18.086Z,55.17
2022-12-19T08:07:44.830Z,52.35
2022-12-19T08:10:14.642Z,54.83
2022-12-19T08:12:41.822Z,60.13
2022-12-19T08:15:08.972Z,54.65
2022-12-19T08:17:39.071Z,51.85
2022-12-19T08:20:08.549Z,49.45
2022-12-19T08:22:35.679Z,55.30
2022-12-19T08:25:02.480Z,59.63
2022-12-19T08:27:29.555Z,54.10
2022-12-19T08:29:56.402Z,50.95
2022-12-19T08:32:23.062Z,52.90
2022-12-19T08:34:50.219Z,56.05
2022-12-19T08:37:17.462Z,53.58
2022-12-19T08:39:47.062Z,60.83
2022-12-19T08:42:14.114Z,60.60
2022-12-19T08:44:40.833Z,59.83
2022-12-19T08:47:07.683Z,54.33
2022-12-19T08:49:34.407Z,51.72
2022-12-19T08:52:01.351Z,54.22
2022-12-19T08:54:28.192Z,54.00
2022-12-19T08:56:54.911Z,50.72
2022-12-19T08:59:30.854Z,53.42
2022-12-19T09:02:06.220Z,51.17
2022-12-19T09:05:57.905Z,56.67
2022-12-19T09:07:20.263Z,53.72
2022-12-19T09:09:47.368Z,53.95
2022-12-19T09:12:15.293Z,54.53
2022-12-19T09:14:44.206Z,56.47
2022-12-19T09:17:11.124Z,50.78
2022-12-19T09:19:37.968Z,54.42
2022-12-19T09:22:05.815Z,56.17
2022-12-19T09:24:32.496Z,54.45
2022-12-19T09:26:59.354Z,49.85
2022-12-19T09:29:34.912Z,63.60
2022-12-19T09:32:02.356Z,61.13
2022-12-19T09:34:37.809Z,49.83
2022-12-19T09:37:08.250Z,54.47
2022-12-19T09:39:37.432Z,55.55
2022-12-19T09:42:15.249Z,57.63
2022-12-19T09:45:22.917Z,58.25
2022-12-19T09:47:59.222Z,54.85
2022-12-19T09:50:35.831Z,50.10
2022-12-19T09:53:08.063Z,54.20
2022-12-19T09:55:38.616Z,60.15
2022-12-19T09:58:18.332Z,55.40
2022-12-19T10:00:49.153Z,58.03
2022-12-19T10:03:39.684Z,55.58
2022-12-19T10:07:11.735Z,55.75
2022-12-19T10:10:44.979Z,52.10
2022-12-19T10:12:45.783Z,48.88
2022-12-19T10:15:20.186Z,47.88
2022-12-19T10:18:06.097Z,56.08
2022-12-19T10:20:40.868Z,55.33
2022-12-19T10:23:29.197Z,56.90
2022-12-19T10:26:30.470Z,51.30
2022-12-19T10:31:34.037Z,53.78
2022-12-19T10:34:04.924Z,53.70
2022-12-19T10:37:13.046Z,59.13
2022-12-19T10:39:35.868Z,55.95
2022-12-19T10:42:18.934Z,52.42
2022-12-19T10:44:49.339Z,56.80
2022-12-19T10:47:17.418Z,55.70
2022-12-19T10:49:44.255Z,48.42
2022-12-19T10:52:12.607Z,50.17
2022-12-19T10:54:42.786Z,50.55
2022-12-19T10:57:18.706Z,50.47
2022-12-19T11:00:00.617Z,56.15
2022-12-19T11:02:39.520Z,58.20
2022-12-19T11:05:20.013Z,54.92
2022-12-19T11:08:16.447Z,54.45
2022-12-19T11:13:17.613Z,55.70
2022-12-19T11:17:37.242Z,47.78
2022-12-19T11:21:27.032Z,52.22
2022-12-19T11:29:32.231Z,54.83
2022-12-19T11:29:36.673Z,54.40
2022-12-19T11:29:37.683Z,48.55
2022-12-19T11:30:43.089Z,52.38
2022-12-19T11:34:21.775Z,50.70
2022-12-19T11:36:58.522Z,50.85
2022-12-19T11:39:45.672Z,47.30
2022-12-19T11:42:34.084Z,51.30
2022-12-19T11:45:13.407Z,54.13
2022-12-19T11:47:57.970Z,57.05
2022-12-19T11:50:32.040Z,51.30
2022-12-19T11:53:19.290Z,51.00
2022-12-19T11:56:15.836Z,49.67
2022-12-19T11:58:50.361Z,48.60
2022-12-19T12:01:26.163Z,49.85
2022-12-19T12:04:28.258Z,50.33
2022-12-19T12:06:56.405Z,51.35
2022-12-19T12:13:50.297Z,49.95
2022-12-19T12:23:46.518Z,54.30
2022-12-19T12:29:59.329Z,51.45
2022-12-19T12:31:02.009Z,40.90
2022-12-19T12:31:40.800Z,48.60
2022-12-19T12:31:57.752Z,49.92
2022-12-19T12:32:04.209Z,45.90
2022-12-19T12:35:46.913Z,44.70
2022-12-19T12:40:32.688Z,45.55
2022-12-19T12:43:33.620Z,48.58
2022-12-19T12:46:03.736Z,48.92
2022-12-19T12:48:48.352Z,46.28
2022-12-19T12:51:18.379Z,47.05
2022-12-19T12:53:48.423Z,52.35
2022-12-19T12:56:18.602Z,52.67
2022-12-19T12:58:51.737Z,52.67
2022-12-19T13:01:30.214Z,49.10
2022-12-19T13:04:27.321Z,44.30
2022-12-19T13:06:54.309Z,51.92
2022-12-19T13:09:27.514Z,46.10
2022-12-19T13:12:20.991Z,43.60
2022-12-19T13:14:50.795Z,49.67
2022-12-19T13:17:32.846Z,46.88
2022-12-19T13:20:05.734Z,43.92
2022-12-19T13:22:32.597Z,47.10
2022-12-19T13:25:36.739Z,44.92
2022-12-19T13:28:37.379Z,40.10
2022-12-19T13:31:21.291Z,45.45
2022-12-19T13:33:55.828Z,42.17
2022-12-19T13:39:54.906Z,45.90
2022-12-19T13:40:09.132Z,45.95
2022-12-19T13:43:20.301Z,44.03
2022-12-19T13:46:00.961Z,48.03
2022-12-19T13:48:57.254Z,44.97
2022-12-19T13:51:28.037Z,43.88
2022-12-19T13:54:00.095Z,40.90
2022-12-19T13:56:30.849Z,46.75
2022-12-19T13:59:01.317Z,44.65
2022-12-19T14:01:37.039Z,42.53
2022-12-19T14:04:08.764Z,42.20
2022-12-19T14:06:44.839Z,44.97
2022-12-19T14:11:28.011Z,43.70
2022-12-19T14:13:44.148Z,42.97
2022-12-19T14:15:56.611Z,43.45
2022-12-19T14:18:44.666Z,45.55
2022-12-19T14:22:04.607Z,42.80
2022-12-19T14:24:19.992Z,45.30
2022-12-19T14:28:21.004Z,43.65
2022-12-19T14:30:27.533Z,41.85
2022-12-19T14:33:43.987Z,39.63
2022-12-19T14:36:06.875Z,41.25
2022-12-19T14:39:24.521Z,42.92
2022-12-19T14:42:00.610Z,39.78
2022-12-19T14:53:33.930Z,39.63
2022-12-19T14:53:51.721Z,40.60
2022-12-19T14:54:14.514Z,38.20
2022-12-19T14:54:37.230Z,43.72
2022-12-19T14:59:29.233Z,36.75
2022-12-19T15:02:30.699Z,39.95
2022-12-19T15:05:08.519Z,39.58
2022-12-19T15:07:47.393Z,38.88
2022-12-19T15:11:06.608Z,35.03
2022-12-19T15:14:55.375Z,37.80
2022-12-19T15:16:29.788Z,38.42
2022-12-19T15:19:08.093Z,40.25
2022-12-19T15:21:37.544Z,37.67
2022-12-19T15:24:04.723Z,38.63
2022-12-19T15:26:41.890Z,36.67
2022-12-19T15:29:27.910Z,44.35
2022-12-19T15:31:57.577Z,38.15
2022-12-19T15:34:35.396Z,41.65
2022-12-19T15:37:05.254Z,42.25
2022-12-19T15:39:39.786Z,38.50
2022-12-19T15:42:17.580Z,40.17
2022-12-19T15:44:46.406Z,39.40
2022-12-19T15:47:22.193Z,37.42
2022-12-19T15:52:53.812Z,37.65
2022-12-19T15:55:30.230Z,36.40
2022-12-19T15:58:00.798Z,37.47
2022-12-19T16:00:35.527Z,38.83
2022-12-19T16:05:55.608Z,41.00
2022-12-19T16:08:26.223Z,41.85
2022-12-19T16:11:14.961Z,43.42
2022-12-19T16:13:59.591Z,44.03
2022-12-19T16:16:27.895Z,52.88
2022-12-19T16:18:54.573Z,44.03
2022-12-19T16:21:33.193Z,50.55
2022-12-19T16:24:01.109Z,49.90
2022-12-19T16:26:37.281Z,39.40
2022-12-19T16:29:18.047Z,38.42
2022-12-19T16:31:45.215Z,48.53
2022-12-19T16:34:17.703Z,43.80
2022-12-19T16:37:03.572Z,42.28
2022-12-19T16:39:30.516Z,43.78
2022-12-19T16:41:57.622Z,41.13
2022-12-19T16:44:41.151Z,43.58
2022-12-19T16:47:16.744Z,46.63
2022-12-19T16:49:44.675Z,36.58
2022-12-19T16:52:12.131Z,46.95
2022-12-19T16:54:44.327Z,40.63
2022-12-19T16:57:21.540Z,47.75
2022-12-19T16:59:51.028Z,48.00
2022-12-19T17:02:44.823Z,42.72
2022-12-19T17:05:20.038Z,44.03
2022-12-19T17:07:47.627Z,39.67
2022-12-19T17:10:14.974Z,43.72
2022-12-19T17:12:44.566Z,39.45
2022-12-19T17:15:27.397Z,44.00
2022-12-19T17:17:58.093Z,39.75
2022-12-19T17:20:27.896Z,47.38
2022-12-19T17:22:54.913Z,40.95
2022-12-19T17:25:28.308Z,42.75
2022-12-19T17:27:59.103Z,37.42
2022-12-19T17:32:55.645Z,38.40
2022-12-19T17:35:28.218Z,40.35
2022-12-19T17:37:56.976Z,47.45
2022-12-19T17:40:28.734Z,42.03
2022-12-19T17:42:56.738Z,48.72
2022-12-19T17:45:29.429Z,45.22
2022-12-19T17:48:04.132Z,51.33
2022-12-19T17:50:37.617Z,38.75
2022-12-19T17:53:06.105Z,49.13
2022-12-19T17:55:37.802Z,52.97
2022-12-19T17:58:04.877Z,49.05
2022-12-19T18:00:33.399Z,52.20
2022-12-19T18:03:05.793Z,46.25
2022-12-19T18:05:36.054Z,48.88
2022-12-19T18:08:04.310Z,46.75
2022-12-19T18:10:34.851Z,42.42
2022-12-19T18:13:01.664Z,45.03
2022-12-19T18:15:28.429Z,44.55
2022-12-19T18:17:55.387Z,43.08
2022-12-19T18:20:31.609Z,41.85
2022-12-19T18:23:00.514Z,47.13
2022-12-19T18:25:31.085Z,43.30
2022-12-19T18:27:58.580Z,40.28
2022-12-19T18:30:26.027Z,44.35
2022-12-19T18:32:57.499Z,40.25
2022-12-19T18:35:37.059Z,44.00
2022-12-19T18:38:21.239Z,39.88
2022-12-19T18:40:50.191Z,44.47
2022-12-19T18:43:20.087Z,39.45
2022-12-19T18:45:54.731Z,39.92
2022-12-19T18:48:27.612Z,43.75
2022-12-19T18:50:58.976Z,42.78
2022-12-19T18:53:35.376Z,40.83
2022-12-19T18:56:05.116Z,44.38
2022-12-19T18:58:36.826Z,42.83
2022-12-19T19:01:07.355Z,41.97
2022-12-19T19:03:54.139Z,41.50
2022-12-19T19:06:25.923Z,43.80
2022-12-19T19:08:53.525Z,42.38
2022-12-19T19:11:23.537Z,39.30
2022-12-19T19:13:52.405Z,45.97
2022-12-19T19:16:25.159Z,42.22
2022-12-19T19:18:57.517Z,41.72
2022-12-19T19:21:27.931Z,40.58
2022-12-19T19:24:00.194Z,43.58
2022-12-19T19:26:27.077Z,43.42
2022-12-19T19:28:56.534Z,44.55
2022-12-19T19:31:26.896Z,45.28
2022-12-19T19:34:04.382Z,43.97
2022-12-19T19:36:35.933Z,50.20
2022-12-19T19:39:04.631Z,45.47
2022-12-19T19:41:33.009Z,56.38
2022-12-19T19:44:58.545Z,48.38
2022-12-19T19:47:45.462Z,49.30
2022-12-19T19:50:51.500Z,42.38
2022-12-19T19:56:32.469Z,40.92
2022-12-19T19:59:14.029Z,43.40
2022-12-19T20:01:50.559Z,40.17
2022-12-19T20:04:29.539Z,54.92
2022-12-19T20:06:59.698Z,50.22
2022-12-19T20:12:50.382Z,66.80
2022-12-19T20:15:22.841Z,47.10
2022-12-19T20:18:34.589Z,45.83
2022-12-19T20:28:06.371Z,43.75
2022-12-19T20:30:33.730Z,41.97
2022-12-19T20:33:00.566Z,41.17
2022-12-19T20:35:27.247Z,44.65
2022-12-19T20:37:53.866Z,47.58
2022-12-19T20:40:20.837Z,42.08
2022-12-19T20:42:52.303Z,41.92
2022-12-19T20:45:26.701Z,44.60
2022-12-19T20:47:53.716Z,45.88
2022-12-19T20:50:20.648Z,44.53
2022-12-19T20:52:47.530Z,43.10
2022-12-19T20:55:14.661Z,42.83
2022-12-19T20:57:41.386Z,43.97
2022-12-19T21:00:08.798Z,41.75
2022-12-19T21:03:00.264Z,46.38
2022-12-19T21:05:22.241Z,44.10
2022-12-19T21:07:48.904Z,42.38
2022-12-19T21:10:15.711Z,37.58
2022-12-19T21:12:47.550Z,44.17
2022-12-19T21:15:14.781Z,39.80
2022-12-19T21:17:41.605Z,39.70
2022-12-19T21:20:08.671Z,43.70
2022-12-19T21:22:35.489Z,42.25
2022-12-19T21:25:02.172Z,38.85
2022-12-19T21:27:29.014Z,41.30
2022-12-19T21:29:58.083Z,41.35
2022-12-19T21:32:24.799Z,42.97
2022-12-19T21:34:54.600Z,37.53
2022-12-19T21:37:21.389Z,43.45
2022-12-19T21:39:48.096Z,43.25
2022-12-19T21:42:14.777Z,37.00
2022-12-19T21:44:41.627Z,41.17
2022-12-19T21:47:08.430Z,41.47
2022-12-19T21:49:37.433Z,39.83
2022-12-19T21:52:04.275Z,41.20
2022-12-19T21:54:31.179Z,44.90
2022-12-19T21:56:58.054Z,42.22
2022-12-19T21:59:24.798Z,41.22
2022-12-19T22:01:51.698Z,42.33
2022-12-19T22:04:21.163Z,45.47
2022-12-19T22:06:50.131Z,41.00
2022-12-19T22:09:20.898Z,45.38
2022-12-19T22:11:47.915Z,39.58
2022-12-19T22:14:16.176Z,48.03
2022-12-19T22:16:43.479Z,45.42
2022-12-19T22:19:13.575Z,42.97
2022-12-19T22:21:40.541Z,40.33
2022-12-19T22:24:07.887Z,43.38
2022-12-19T22:26:35.511Z,44.95
2022-12-19T22:29:10.556Z,45.30
2022-12-19T22:31:38.776Z,40.95
2022-12-19T22:34:08.643Z,42.60
2022-12-19T22:36:36.737Z,41.72
2022-12-19T22:39:06.358Z,40.20
2022-12-19T22:41:35.708Z,38.97
2022-12-19T22:44:04.319Z,40.00
2022-12-19T22:46:35.860Z,42.40
2022-12-19T22:49:05.992Z,43.33
2022-12-19T22:51:33.870Z,40.40
2022-12-19T22:54:01.285Z,41.80
2022-12-19T22:56:30.646Z,42.80
2022-12-19T22:59:01.624Z,43.42
2022-12-19T23:01:31.992Z,45.30
2022-12-19T23:04:00.546Z,43.20
2022-12-19T23:06:29.549Z,43.72
2022-12-19T23:08:56.274Z,41.40
2022-12-19T23:11:30.147Z,42.03
2022-12-19T23:13:57.157Z,43.28
2022-12-19T23:16:24.032Z,42.60
2022-12-19T23:18:50.812Z,42.08
2022-12-19T23:21:20.723Z,43.50
2022-12-19T23:23:49.568Z,52.63
2022-12-19T23:26:22.739Z,38.33
2022-12-19T23:29:01.453Z,47.30
2022-12-19T23:31:28.839Z,47.83
2022-12-19T23:33:57.064Z,46.22
2022-12-19T23:37:00.602Z,44.90
2022-12-19T23:39:13.299Z,41.97
2022-12-19T23:41:42.523Z,43.80
2022-12-19T23:44:10.314Z,42.03
2022-12-19T23:46:37.854Z,41.65
2022-12-19T23:49:04.732Z,38.47
2022-12-19T23:51:31.491Z,41.35
2022-12-19T23:53:58.503Z,40.53
2022-12-19T23:56:30.302Z,37.25
2022-12-19T23:58:57.559Z,41.78
